Terminal Aerodrome Forecast
Issued by NWS

Home | Current Version | Previous Version | Text Only | Print | Product List | Glossary On
Versions: 1 2 3 4 5 6 7 8 9 10 11 12 13
859
FTUS45 KVEF 090844 AAA
TAFEED
TAF AMD
KEED 090844Z 0909/1006 34017KT P6SM SKC
     FM091600 01018G26KT P6SM SKC
     FM100200 36012KT P6SM SKC=

USA.gov is the U.S. government's official web portal to all federal, state and local government web resources and services.